createdAt,value
2023-10-06T00:00:41.331Z,100356.00
2023-10-06T00:02:21.195Z,100355.00
2023-10-06T00:03:59.608Z,100358.00
2023-10-06T00:05:32.956Z,100364.00
2023-10-06T00:07:09.296Z,100370.00
2023-10-06T00:08:42.599Z,100361.00
2023-10-06T00:10:22.608Z,100366.00
2023-10-06T00:11:55.984Z,100377.00
2023-10-06T00:13:30.400Z,100370.00
2023-10-06T00:15:08.825Z,100374.00
2023-10-06T00:16:41.597Z,100375.00
2023-10-06T00:18:17.738Z,100375.00
2023-10-06T00:19:53.198Z,100369.00
2023-10-06T00:21:26.835Z,100370.00
2023-10-06T00:23:06.920Z,100374.00
2023-10-06T00:24:42.722Z,100374.00
2023-10-06T00:26:18.203Z,100372.00
2023-10-06T00:27:54.680Z,100375.00
2023-10-06T00:29:30.367Z,100381.00
2023-10-06T00:31:09.086Z,100370.00
2023-10-06T00:32:43.409Z,100371.00
2023-10-06T00:34:20.796Z,100378.00
2023-10-06T00:35:53.003Z,100369.00
2023-10-06T00:37:27.068Z,100370.00
2023-10-06T00:39:06.082Z,100368.00
2023-10-06T00:40:40.394Z,100363.00
2023-10-06T00:42:16.331Z,100366.00
2023-10-06T00:43:50.219Z,100367.00
2023-10-06T00:45:25.563Z,100364.00
2023-10-06T00:47:00.440Z,100374.00
2023-10-06T00:48:34.073Z,100373.00
2023-10-06T00:50:08.508Z,100371.00
2023-10-06T00:51:42.881Z,100363.00
2023-10-06T00:53:17.223Z,100367.00
2023-10-06T00:54:51.781Z,100359.00
2023-10-06T00:56:26.690Z,100357.00
2023-10-06T00:57:59.280Z,100361.00
2023-10-06T00:59:33.053Z,100365.00
2023-10-06T01:01:06.559Z,100365.00
2023-10-06T01:02:40.448Z,100359.00
2023-10-06T01:04:12.986Z,100351.00
2023-10-06T01:05:47.503Z,100359.00
2023-10-06T01:07:25.685Z,100359.00
2023-10-06T01:09:07.487Z,100351.00
2023-10-06T01:10:42.485Z,100354.00
2023-10-06T01:12:19.076Z,100357.00
2023-10-06T01:13:56.760Z,100341.00
2023-10-06T01:15:30.925Z,100342.00
2023-10-06T01:17:15.830Z,100343.00
2023-10-06T01:18:51.653Z,100345.00
2023-10-06T01:20:34.612Z,100339.00
2023-10-06T01:22:23.108Z,100342.00
2023-10-06T01:23:59.329Z,100335.00
2023-10-06T01:25:36.293Z,100332.00
2023-10-06T01:27:12.607Z,100332.00
2023-10-06T01:28:46.529Z,100326.00
2023-10-06T01:30:20.741Z,100319.00
2023-10-06T01:31:53.067Z,100320.00
2023-10-06T01:33:27.595Z,100320.00
2023-10-06T01:35:00.007Z,100319.00
2023-10-06T01:36:34.926Z,100321.00
2023-10-06T01:38:15.998Z,100323.00
2023-10-06T01:39:49.655Z,100320.00
2023-10-06T01:41:27.149Z,100316.00
2023-10-06T01:42:59.513Z,100303.00
2023-10-06T01:44:33.243Z,100305.00
2023-10-06T01:46:08.425Z,100304.00
2023-10-06T01:47:41.745Z,100299.00
2023-10-06T01:49:15.931Z,100306.00
2023-10-06T01:50:49.889Z,100300.00
2023-10-06T01:52:23.087Z,100313.00
2023-10-06T01:53:56.647Z,100305.00
2023-10-06T01:55:30.223Z,100303.00
2023-10-06T01:57:07.251Z,100307.00
2023-10-06T01:58:40.468Z,100313.00
2023-10-06T02:00:17.871Z,100299.00
2023-10-06T02:01:50.854Z,100309.00
2023-10-06T02:03:24.753Z,100303.00
2023-10-06T02:05:00.820Z,100311.00
2023-10-06T02:06:34.547Z,100312.00
2023-10-06T02:08:10.687Z,100318.00
2023-10-06T02:09:45.451Z,100316.00
2023-10-06T02:11:18.195Z,100314.00
2023-10-06T02:12:52.362Z,100312.00
2023-10-06T02:14:24.591Z,100312.00
2023-10-06T02:16:00.035Z,100307.00
2023-10-06T02:17:35.498Z,100308.00
2023-10-06T02:19:10.181Z,100311.00
2023-10-06T02:20:47.062Z,100302.00
2023-10-06T02:22:20.202Z,100303.00
2023-10-06T02:23:52.601Z,100306.00
2023-10-06T02:25:29.248Z,100301.00
2023-10-06T02:27:03.934Z,100293.00
2023-10-06T02:28:41.743Z,100296.00
2023-10-06T02:30:20.276Z,100288.00
2023-10-06T02:31:53.436Z,100289.00
2023-10-06T02:33:26.678Z,100299.00
2023-10-06T02:35:00.336Z,100287.00
2023-10-06T02:36:33.084Z,100294.00
2023-10-06T02:38:07.458Z,100301.00
2023-10-06T02:39:44.485Z,100293.00
2023-10-06T02:41:20.382Z,100299.00
2023-10-06T02:42:53.823Z,100289.00
2023-10-06T02:44:26.118Z,100294.00
2023-10-06T02:46:08.710Z,100289.00
2023-10-06T02:47:41.441Z,100285.00
2023-10-06T02:49:15.194Z,100288.00
2023-10-06T02:50:51.104Z,100283.00
2023-10-06T02:52:24.463Z,100283.00
2023-10-06T02:54:13.851Z,100288.00
2023-10-06T02:55:47.360Z,100278.00
2023-10-06T02:57:21.383Z,100278.00
2023-10-06T02:58:59.244Z,100291.00
2023-10-06T03:00:32.463Z,100284.00
2023-10-06T03:02:16.977Z,100284.00
2023-10-06T03:03:52.552Z,100297.00
2023-10-06T03:05:33.110Z,100290.00
2023-10-06T03:07:15.454Z,100286.00
2023-10-06T03:08:48.914Z,100287.00
2023-10-06T03:10:27.950Z,100281.00
2023-10-06T03:12:01.394Z,100290.00
2023-10-06T03:13:37.486Z,100287.00
2023-10-06T03:15:29.573Z,100284.00
2023-10-06T03:17:05.601Z,100283.00
2023-10-06T03:18:40.369Z,100285.00
2023-10-06T03:20:19.693Z,100279.00
2023-10-06T03:21:57.124Z,100285.00
2023-10-06T03:23:32.377Z,100281.00
2023-10-06T03:25:15.334Z,100285.00
2023-10-06T03:26:48.824Z,100288.00
2023-10-06T03:28:21.681Z,100281.00
2023-10-06T03:29:56.967Z,100286.00
2023-10-06T03:31:45.626Z,100285.00
2023-10-06T03:33:21.444Z,100286.00
2023-10-06T03:34:56.100Z,100289.00
2023-10-06T03:36:38.477Z,100287.00
2023-10-06T03:38:28.922Z,100284.00
2023-10-06T03:40:12.401Z,100290.00
2023-10-06T03:41:47.942Z,100290.00
2023-10-06T03:43:35.493Z,100285.00
2023-10-06T03:45:27.188Z,100296.00
2023-10-06T03:47:02.182Z,100296.00
2023-10-06T03:48:35.014Z,100297.00
2023-10-06T03:50:09.416Z,100301.00
2023-10-06T03:51:42.118Z,100298.00
2023-10-06T03:53:16.646Z,100291.00
2023-10-06T03:54:49.897Z,100285.00
2023-10-06T03:56:23.174Z,100296.00
2023-10-06T03:57:55.446Z,100298.00
2023-10-06T03:59:28.659Z,100288.00
2023-10-06T04:01:08.987Z,100288.00
2023-10-06T04:02:44.474Z,100293.00
2023-10-06T04:04:23.085Z,100292.00
2023-10-06T04:05:55.299Z,100295.00
2023-10-06T04:07:28.564Z,100287.00
2023-10-06T04:09:01.738Z,100284.00
2023-10-06T04:10:35.175Z,100283.00
2023-10-06T04:12:08.627Z,100281.00
2023-10-06T04:13:41.006Z,100281.00
2023-10-06T04:15:16.451Z,100273.00
2023-10-06T04:16:54.517Z,100278.00
2023-10-06T04:18:26.780Z,100277.00
2023-10-06T04:20:00.458Z,100275.00
2023-10-06T04:21:35.498Z,100279.00
2023-10-06T04:23:08.385Z,100286.00
2023-10-06T04:24:41.599Z,100281.00
2023-10-06T04:26:16.771Z,100278.00
2023-10-06T04:27:49.215Z,100277.00
2023-10-06T04:29:26.986Z,100272.00
2023-10-06T04:31:02.022Z,100281.00
2023-10-06T04:32:36.626Z,100266.00
2023-10-06T04:34:10.641Z,100264.00
2023-10-06T04:35:49.058Z,100273.00
2023-10-06T04:37:22.469Z,100270.00
2023-10-06T04:38:57.552Z,100260.00
2023-10-06T04:40:31.323Z,100268.00
2023-10-06T04:42:03.922Z,100249.00
2023-10-06T04:43:37.982Z,100252.00
2023-10-06T04:45:13.957Z,100255.00
2023-10-06T04:46:47.126Z,100252.00
2023-10-06T04:48:20.672Z,100251.00
2023-10-06T04:49:54.006Z,100247.00
2023-10-06T04:51:28.365Z,100256.00
2023-10-06T04:53:00.788Z,100260.00
2023-10-06T04:54:33.966Z,100245.00
2023-10-06T04:56:09.528Z,100252.00
2023-10-06T04:57:42.559Z,100239.00
2023-10-06T04:59:15.933Z,100247.00
2023-10-06T05:00:53.551Z,100251.00
2023-10-06T05:02:26.925Z,100252.00
2023-10-06T05:04:06.893Z,100249.00
2023-10-06T05:05:39.613Z,100236.00
2023-10-06T05:07:12.816Z,100242.00
2023-10-06T05:08:48.045Z,100245.00
2023-10-06T05:10:26.375Z,100228.00
2023-10-06T05:11:59.502Z,100227.00
2023-10-06T05:13:31.828Z,100232.00
2023-10-06T05:15:09.338Z,100225.00
2023-10-06T05:16:42.635Z,100230.00
2023-10-06T05:18:17.872Z,100234.00
2023-10-06T05:19:51.585Z,100227.00
2023-10-06T05:21:24.823Z,100237.00
2023-10-06T05:22:59.633Z,100232.00
2023-10-06T05:24:33.291Z,100243.00
2023-10-06T05:26:09.349Z,100225.00
2023-10-06T05:27:43.452Z,100223.00
2023-10-06T05:29:16.819Z,100215.00
2023-10-06T05:30:48.990Z,100216.00
2023-10-06T05:32:22.188Z,100214.00
2023-10-06T05:33:55.291Z,100218.00
2023-10-06T05:35:30.421Z,100214.00
2023-10-06T05:37:03.617Z,100202.00
2023-10-06T05:38:50.315Z,100204.00
2023-10-06T05:40:38.586Z,100210.00
2023-10-06T05:42:12.118Z,100205.00
2023-10-06T05:43:45.402Z,100207.00
2023-10-06T05:45:19.520Z,100203.00
2023-10-06T05:46:52.834Z,100201.00
2023-10-06T05:48:29.596Z,100204.00
2023-10-06T05:50:09.458Z,100207.00
2023-10-06T05:51:44.902Z,100210.00
2023-10-06T05:53:21.210Z,100216.00
2023-10-06T05:54:58.436Z,100214.00
2023-10-06T05:56:33.213Z,100221.00
2023-10-06T05:58:10.646Z,100217.00
2023-10-06T05:59:43.915Z,100225.00
2023-10-06T06:01:20.088Z,100235.00
2023-10-06T06:02:54.469Z,100229.00
2023-10-06T06:04:29.949Z,100227.00
2023-10-06T06:06:11.096Z,100233.00
2023-10-06T06:07:45.103Z,100218.00
2023-10-06T06:09:20.639Z,100216.00
2023-10-06T06:10:53.396Z,100219.00
2023-10-06T06:12:26.576Z,100226.00
2023-10-06T06:14:15.084Z,100231.00
2023-10-06T06:15:50.641Z,100225.00
2023-10-06T06:17:22.920Z,100223.00
2023-10-06T06:18:56.063Z,100228.00
2023-10-06T06:20:28.846Z,100233.00
2023-10-06T06:22:06.791Z,100234.00
2023-10-06T06:23:40.426Z,100225.00
2023-10-06T06:25:13.968Z,100233.00
2023-10-06T06:26:46.184Z,100240.00
2023-10-06T06:28:19.317Z,100236.00
2023-10-06T06:29:51.545Z,100241.00
2023-10-06T06:31:25.971Z,100234.00
2023-10-06T06:32:59.141Z,100248.00
2023-10-06T06:34:31.904Z,100231.00
2023-10-06T06:36:06.526Z,100245.00
2023-10-06T06:37:38.873Z,100237.00
2023-10-06T06:39:13.400Z,100234.00
2023-10-06T06:40:45.699Z,100235.00
2023-10-06T06:42:19.789Z,100238.00
2023-10-06T06:43:59.137Z,100244.00
2023-10-06T06:45:37.421Z,100246.00
2023-10-06T06:47:10.977Z,100255.00
2023-10-06T06:48:45.483Z,100254.00
2023-10-06T06:50:19.271Z,100259.00
2023-10-06T06:51:53.583Z,100259.00
2023-10-06T06:53:27.099Z,100257.00
2023-10-06T06:55:00.615Z,100253.00
2023-10-06T06:56:33.984Z,100260.00
2023-10-06T06:58:07.632Z,100262.00
2023-10-06T06:59:42.580Z,100264.00
2023-10-06T07:01:16.457Z,100250.00
2023-10-06T07:02:52.344Z,100264.00
2023-10-06T07:04:27.294Z,100264.00
2023-10-06T07:06:01.058Z,100259.00
2023-10-06T07:07:34.083Z,100264.00
2023-10-06T07:09:13.887Z,100257.00
2023-10-06T07:10:53.525Z,100261.00
2023-10-06T07:12:25.805Z,100260.00
2023-10-06T07:13:59.047Z,100259.00
2023-10-06T07:15:31.355Z,100270.00
2023-10-06T07:17:04.739Z,100270.00
2023-10-06T07:18:38.062Z,100266.00
2023-10-06T07:20:15.299Z,100267.00
2023-10-06T07:21:47.643Z,100262.00
2023-10-06T07:23:20.823Z,100258.00
2023-10-06T07:24:56.517Z,100258.00
2023-10-06T07:26:32.150Z,100251.00
2023-10-06T07:28:07.350Z,100249.00
2023-10-06T07:29:40.701Z,100259.00
2023-10-06T07:31:14.416Z,100255.00
2023-10-06T07:32:48.218Z,100257.00
2023-10-06T07:34:20.478Z,100256.00
2023-10-06T07:35:54.937Z,100259.00
2023-10-06T07:37:28.049Z,100260.00
2023-10-06T07:39:02.221Z,100250.00
2023-10-06T07:40:34.522Z,100253.00
2023-10-06T07:42:09.091Z,100249.00
2023-10-06T07:43:42.241Z,100252.00
2023-10-06T07:45:14.669Z,100249.00
2023-10-06T07:46:49.074Z,100258.00
2023-10-06T07:48:21.392Z,100263.00
2023-10-06T07:49:55.299Z,100266.00
2023-10-06T07:51:29.506Z,100266.00
2023-10-06T07:53:02.681Z,100264.00
2023-10-06T07:54:37.928Z,100249.00
2023-10-06T07:56:12.745Z,100260.00
2023-10-06T07:57:49.130Z,100256.00
2023-10-06T07:59:21.579Z,100255.00
2023-10-06T08:00:54.811Z,100252.00
2023-10-06T08:02:30.207Z,100261.00
2023-10-06T08:04:04.649Z,100253.00
2023-10-06T08:05:39.171Z,100255.00
2023-10-06T08:07:12.295Z,100248.00
2023-10-06T08:08:45.711Z,100249.00
2023-10-06T08:10:19.663Z,100243.00
2023-10-06T08:11:55.428Z,100239.00
2023-10-06T08:13:31.854Z,100246.00
2023-10-06T08:15:10.451Z,100244.00
2023-10-06T08:16:46.793Z,100235.00
2023-10-06T08:18:19.413Z,100233.00
2023-10-06T08:19:55.144Z,100228.00
2023-10-06T08:21:27.400Z,100232.00
2023-10-06T08:23:01.015Z,100225.00
2023-10-06T08:24:33.402Z,100240.00
2023-10-06T08:26:09.894Z,100229.00
2023-10-06T08:27:42.909Z,100232.00
2023-10-06T08:29:17.505Z,100243.00
2023-10-06T08:30:49.706Z,100239.00
2023-10-06T08:32:23.444Z,100242.00
2023-10-06T08:33:55.735Z,100243.00
2023-10-06T08:35:29.685Z,100247.00
2023-10-06T08:37:05.315Z,100242.00
2023-10-06T08:38:38.871Z,100238.00
2023-10-06T08:40:17.407Z,100240.00
2023-10-06T08:41:57.120Z,100227.00
2023-10-06T08:43:30.384Z,100228.00
2023-10-06T08:45:04.906Z,100219.00
2023-10-06T08:46:42.578Z,100227.00
2023-10-06T08:48:16.710Z,100213.00
2023-10-06T08:49:51.894Z,100214.00
2023-10-06T08:51:29.953Z,100213.00
2023-10-06T08:53:06.721Z,100217.00
2023-10-06T08:54:41.625Z,100234.00
2023-10-06T08:56:16.405Z,100210.00
2023-10-06T08:57:51.975Z,100223.00
2023-10-06T08:59:24.315Z,100213.00
2023-10-06T09:01:01.181Z,100213.00
2023-10-06T09:02:33.548Z,100220.00
2023-10-06T09:04:10.424Z,100217.00
2023-10-06T09:05:43.690Z,100227.00
2023-10-06T09:07:18.395Z,100227.00
2023-10-06T09:08:51.643Z,100234.00
2023-10-06T09:10:24.481Z,100227.00
2023-10-06T09:11:57.682Z,100223.00
2023-10-06T09:13:29.882Z,100229.00
2023-10-06T09:15:05.418Z,100236.00
2023-10-06T09:16:51.424Z,100235.00
2023-10-06T09:18:28.478Z,100243.00
2023-10-06T09:20:01.321Z,100241.00
2023-10-06T09:21:34.658Z,100240.00
2023-10-06T09:23:07.541Z,100238.00
2023-10-06T09:24:40.761Z,100232.00
2023-10-06T09:26:16.932Z,100234.00
2023-10-06T09:27:50.475Z,100238.00
2023-10-06T09:29:32.349Z,100230.00
2023-10-06T09:31:07.068Z,100234.00
2023-10-06T09:32:40.825Z,100233.00
2023-10-06T09:34:14.298Z,100228.00
2023-10-06T09:35:46.859Z,100226.00
2023-10-06T09:37:20.909Z,100232.00
2023-10-06T09:39:02.389Z,100238.00
2023-10-06T09:40:43.087Z,100237.00
2023-10-06T09:42:17.912Z,100230.00
2023-10-06T09:43:54.317Z,100229.00
2023-10-06T09:45:30.282Z,100228.00
2023-10-06T09:47:04.878Z,100233.00
2023-10-06T09:48:40.981Z,100237.00
2023-10-06T09:50:15.023Z,100240.00
2023-10-06T09:51:49.260Z,100246.00
2023-10-06T09:53:22.836Z,100244.00
2023-10-06T09:54:59.010Z,100243.00
2023-10-06T09:56:33.580Z,100237.00
2023-10-06T09:58:07.685Z,100238.00
2023-10-06T09:59:41.627Z,100242.00
2023-10-06T10:01:16.089Z,100232.00
2023-10-06T10:02:51.839Z,100237.00
2023-10-06T10:04:30.513Z,100228.00
2023-10-06T10:06:05.521Z,100222.00
2023-10-06T10:07:41.709Z,100211.00
2023-10-06T10:09:18.265Z,100213.00
2023-10-06T10:10:54.820Z,100213.00
2023-10-06T10:12:51.535Z,100210.00
2023-10-06T10:14:50.971Z,100224.00
2023-10-06T10:16:50.838Z,100218.00
2023-10-06T10:18:36.748Z,100220.00
2023-10-06T10:20:14.385Z,100215.00
2023-10-06T10:21:47.374Z,100202.00
2023-10-06T10:23:20.959Z,100202.00
2023-10-06T10:26:49.088Z,100189.00
2023-10-06T10:28:28.751Z,100194.00
2023-10-06T10:30:10.228Z,100195.00
2023-10-06T10:32:00.290Z,100188.00
2023-10-06T10:33:39.927Z,100183.00
2023-10-06T10:37:18.786Z,100185.00
2023-10-06T10:39:10.357Z,100192.00
2023-10-06T10:40:51.004Z,100185.00
2023-10-06T10:42:38.512Z,100186.00
2023-10-06T10:44:25.989Z,100174.00
2023-10-06T10:46:00.210Z,100181.00
2023-10-06T10:47:32.981Z,100181.00
2023-10-06T10:49:12.237Z,100178.00
2023-10-06T10:51:01.065Z,100173.00
2023-10-06T10:52:34.824Z,100174.00
2023-10-06T10:54:07.290Z,100190.00
2023-10-06T10:55:40.573Z,100179.00
2023-10-06T10:57:22.533Z,100179.00
2023-10-06T10:58:56.975Z,100165.00
2023-10-06T11:00:30.918Z,100172.00
2023-10-06T11:02:09.483Z,100169.00
2023-10-06T11:03:43.298Z,100160.00
2023-10-06T11:05:21.001Z,100162.00
2023-10-06T11:06:57.005Z,100153.00
2023-10-06T11:08:39.857Z,100170.00
2023-10-06T11:10:15.326Z,100157.00
2023-10-06T11:11:47.979Z,100145.00
2023-10-06T11:13:21.448Z,100154.00
2023-10-06T11:14:57.000Z,100150.00
2023-10-06T11:16:30.567Z,100156.00
2023-10-06T11:18:06.327Z,100152.00
2023-10-06T11:19:39.744Z,100151.00
2023-10-06T11:21:26.911Z,100149.00
2023-10-06T11:23:02.712Z,100156.00
2023-10-06T11:24:35.118Z,100156.00
2023-10-06T11:26:09.526Z,100152.00
2023-10-06T11:27:42.640Z,100162.00
2023-10-06T11:29:28.964Z,100153.00
2023-10-06T11:31:12.317Z,100146.00
2023-10-06T11:32:45.359Z,100161.00
2023-10-06T11:34:18.993Z,100154.00
2023-10-06T11:35:56.421Z,100154.00
2023-10-06T11:37:30.330Z,100161.00
2023-10-06T11:39:06.162Z,100159.00
2023-10-06T11:42:39.123Z,100156.00
2023-10-06T11:44:12.507Z,100153.00
2023-10-06T11:45:47.596Z,100144.00
2023-10-06T11:47:20.031Z,100138.00
2023-10-06T11:48:54.527Z,100152.00
2023-10-06T11:50:33.503Z,100149.00
2023-10-06T11:52:11.472Z,100153.00
2023-10-06T11:53:45.808Z,100141.00
2023-10-06T11:55:36.121Z,100133.00
2023-10-06T11:57:09.725Z,100128.00
2023-10-06T11:58:45.301Z,100129.00
2023-10-06T12:00:19.718Z,100126.00
2023-10-06T12:01:52.960Z,100125.00
2023-10-06T12:03:39.850Z,100125.00
2023-10-06T12:05:14.776Z,100125.00
2023-10-06T12:06:48.116Z,100126.00
2023-10-06T12:08:20.558Z,100127.00
2023-10-06T12:10:04.628Z,100127.00
2023-10-06T12:11:38.196Z,100127.00
2023-10-06T12:13:11.954Z,100132.00
2023-10-06T12:14:44.837Z,100130.00
2023-10-06T12:16:18.504Z,100136.00
2023-10-06T12:17:52.077Z,100128.00
2023-10-06T12:19:25.803Z,100137.00
2023-10-06T12:20:58.912Z,100129.00
2023-10-06T12:22:41.130Z,100134.00
2023-10-06T12:24:15.116Z,100136.00
2023-10-06T12:25:48.726Z,100127.00
2023-10-06T12:27:23.145Z,100127.00
2023-10-06T12:28:59.976Z,100115.00
2023-10-06T12:30:32.529Z,100110.00
2023-10-06T12:32:05.906Z,100117.00
2023-10-06T12:33:40.035Z,100113.00
2023-10-06T12:35:19.189Z,100106.00
2023-10-06T12:36:53.981Z,100105.00
2023-10-06T12:38:28.136Z,100091.00
2023-10-06T12:40:01.650Z,100105.00
2023-10-06T12:41:34.946Z,100104.00
2023-10-06T12:43:08.701Z,100106.00
2023-10-06T12:44:44.218Z,100096.00
2023-10-06T12:46:19.088Z,100098.00
2023-10-06T12:47:53.902Z,100092.00
2023-10-06T12:49:30.210Z,100081.00
2023-10-06T12:51:02.720Z,100095.00
2023-10-06T12:52:38.387Z,100089.00
2023-10-06T12:54:12.095Z,100087.00
2023-10-06T12:55:44.857Z,100085.00
2023-10-06T12:57:18.286Z,100088.00
2023-10-06T12:59:06.216Z,100088.00
2023-10-06T13:00:39.180Z,100094.00
2023-10-06T13:02:12.950Z,100096.00
2023-10-06T13:03:46.521Z,100090.00
2023-10-06T13:05:20.235Z,100093.00
2023-10-06T13:06:55.225Z,100087.00
2023-10-06T13:08:27.710Z,100091.00
2023-10-06T13:10:03.659Z,100083.00
2023-10-06T13:11:37.615Z,100087.00
2023-10-06T13:13:10.337Z,100089.00
2023-10-06T13:14:44.956Z,100085.00
2023-10-06T13:16:18.043Z,100076.00
2023-10-06T13:17:51.835Z,100082.00
2023-10-06T13:19:24.187Z,100073.00
2023-10-06T13:20:57.793Z,100075.00
2023-10-06T13:22:31.374Z,100076.00
2023-10-06T13:24:07.509Z,100074.00
2023-10-06T13:25:42.947Z,100073.00
2023-10-06T13:27:19.112Z,100077.00
2023-10-06T13:28:54.781Z,100078.00
2023-10-06T13:30:34.007Z,100079.00
2023-10-06T13:32:08.423Z,100066.00
2023-10-06T13:33:42.107Z,100077.00
2023-10-06T13:35:17.401Z,100084.00
2023-10-06T13:36:51.399Z,100079.00
2023-10-06T13:38:26.687Z,100080.00
2023-10-06T13:39:59.722Z,100077.00
2023-10-06T13:41:33.458Z,100075.00
2023-10-06T13:43:08.417Z,100075.00
2023-10-06T13:44:41.781Z,100075.00
2023-10-06T13:46:18.446Z,100074.00
2023-10-06T13:47:53.804Z,100077.00
2023-10-06T13:49:30.658Z,100067.00
2023-10-06T13:51:03.641Z,100083.00
2023-10-06T13:52:37.005Z,100086.00
2023-10-06T13:54:09.727Z,100070.00
2023-10-06T13:55:43.060Z,100063.00
2023-10-06T13:57:15.365Z,100058.00
2023-10-06T13:58:48.902Z,100061.00
2023-10-06T14:00:30.128Z,100056.00
2023-10-06T14:02:06.895Z,100062.00
2023-10-06T14:03:39.311Z,100058.00
2023-10-06T14:05:13.101Z,100046.00
2023-10-06T14:06:50.139Z,100041.00
2023-10-06T14:08:23.873Z,100044.00
2023-10-06T14:09:56.308Z,100039.00
2023-10-06T14:11:31.300Z,100039.00
2023-10-06T14:13:09.394Z,100036.00
2023-10-06T14:15:01.072Z,100042.00
2023-10-06T14:16:37.565Z,100042.00
2023-10-06T14:18:13.963Z,100031.00
2023-10-06T14:19:49.119Z,100038.00
2023-10-06T14:21:22.695Z,100033.00
2023-10-06T14:22:56.622Z,100038.00
2023-10-06T14:24:35.720Z,100034.00
2023-10-06T14:26:11.585Z,100028.00
2023-10-06T14:27:44.717Z,100029.00
2023-10-06T14:29:17.902Z,100037.00
2023-10-06T14:30:52.433Z,100020.00
2023-10-06T14:32:44.042Z,100037.00
2023-10-06T14:34:32.794Z,100028.00
2023-10-06T14:36:25.923Z,100022.00
2023-10-06T14:38:32.807Z,100036.00
2023-10-06T14:40:26.525Z,100036.00
2023-10-06T14:42:17.905Z,100027.00
2023-10-06T14:44:12.298Z,100032.00
2023-10-06T14:46:01.843Z,100018.00
2023-10-06T14:47:34.607Z,100018.00
2023-10-06T14:49:14.110Z,100023.00
2023-10-06T14:51:00.629Z,100024.00
2023-10-06T14:52:34.260Z,100026.00
2023-10-06T14:54:09.120Z,100029.00
2023-10-06T14:55:43.071Z,100023.00
2023-10-06T14:57:17.022Z,100020.00
2023-10-06T14:58:54.754Z,100024.00
2023-10-06T15:00:28.536Z,100005.00
2023-10-06T15:02:07.791Z,100015.00
2023-10-06T15:03:42.492Z,100010.00
2023-10-06T15:05:16.404Z,100010.00
2023-10-06T15:06:53.847Z,100013.00
2023-10-06T15:08:29.701Z,100008.00
2023-10-06T15:10:04.772Z,100014.00
2023-10-06T15:11:41.330Z,100013.00
2023-10-06T15:13:14.926Z,100007.00
2023-10-06T15:14:49.237Z,100008.00
2023-10-06T15:16:23.170Z,100006.00
2023-10-06T15:18:04.899Z,100005.00
2023-10-06T15:19:47.675Z,100008.00
2023-10-06T15:21:24.536Z,100010.00
2023-10-06T15:22:59.633Z,100001.00
2023-10-06T15:24:33.327Z,100015.00
2023-10-06T15:26:08.488Z,100008.00
2023-10-06T15:27:42.485Z,100007.00
2023-10-06T15:29:20.764Z,100017.00
2023-10-06T15:31:02.186Z,100009.00
2023-10-06T15:32:34.935Z,99998.00
2023-10-06T15:34:20.076Z,100011.00
2023-10-06T15:35:55.628Z,100010.00
2023-10-06T15:37:29.477Z,100016.00
2023-10-06T15:39:17.304Z,100012.00
2023-10-06T15:41:09.272Z,100014.00
2023-10-06T15:42:43.340Z,100014.00
2023-10-06T15:44:19.999Z,100024.00
2023-10-06T15:45:57.900Z,100012.00
2023-10-06T15:47:31.555Z,100013.00
2023-10-06T15:49:09.731Z,100012.00
2023-10-06T15:50:42.344Z,100010.00
2023-10-06T15:52:16.275Z,100011.00
2023-10-06T15:53:52.135Z,100004.00
2023-10-06T15:55:27.258Z,100010.00
2023-10-06T15:57:00.902Z,100010.00
2023-10-06T15:58:35.160Z,100010.00
2023-10-06T16:00:14.093Z,100003.00
2023-10-06T16:01:48.672Z,100008.00
2023-10-06T16:03:31.627Z,100011.00
2023-10-06T16:05:05.360Z,100013.00
2023-10-06T16:06:38.705Z,100009.00
2023-10-06T16:08:12.410Z,100014.00
2023-10-06T16:09:45.730Z,100007.00
2023-10-06T16:11:19.763Z,100020.00
2023-10-06T16:12:56.217Z,100020.00
2023-10-06T16:14:31.995Z,100011.00
2023-10-06T16:16:12.028Z,100011.00
2023-10-06T16:17:50.071Z,100007.00
2023-10-06T16:19:25.116Z,100015.00
2023-10-06T16:20:57.939Z,100010.00
2023-10-06T16:22:31.605Z,100008.00
2023-10-06T16:24:07.913Z,100006.00
2023-10-06T16:25:44.408Z,100006.00
2023-10-06T16:27:20.277Z,100011.00
2023-10-06T16:28:53.975Z,100011.00
2023-10-06T16:30:28.085Z,100012.00
2023-10-06T16:32:03.094Z,100010.00
2023-10-06T16:33:38.254Z,100015.00
2023-10-06T16:35:11.387Z,100015.00
2023-10-06T16:36:44.808Z,100021.00
2023-10-06T16:38:17.681Z,100013.00
2023-10-06T16:39:51.488Z,100011.00
2023-10-06T16:41:24.746Z,100017.00
2023-10-06T16:43:02.226Z,100009.00
2023-10-06T16:44:40.914Z,100022.00
2023-10-06T16:46:15.480Z,100020.00
2023-10-06T16:47:48.574Z,100021.00
2023-10-06T16:49:21.993Z,100011.00
2023-10-06T16:50:55.040Z,100019.00
2023-10-06T16:52:28.891Z,100014.00
2023-10-06T16:54:02.133Z,100026.00
2023-10-06T16:55:34.857Z,100019.00
2023-10-06T16:57:09.982Z,100025.00
2023-10-06T16:58:45.102Z,100017.00
2023-10-06T17:00:19.798Z,100023.00
2023-10-06T17:01:54.209Z,100025.00
2023-10-06T17:03:28.636Z,100023.00
2023-10-06T17:05:01.990Z,100024.00
2023-10-06T17:06:36.216Z,100019.00
2023-10-06T17:08:10.442Z,100016.00
2023-10-06T17:09:43.947Z,100013.00
2023-10-06T17:11:23.762Z,100011.00
2023-10-06T17:13:00.088Z,100015.00
2023-10-06T17:14:34.975Z,100023.00
2023-10-06T17:16:10.452Z,100021.00
2023-10-06T17:17:44.785Z,100021.00
2023-10-06T17:19:20.664Z,100025.00
2023-10-06T17:20:54.260Z,100017.00
2023-10-06T17:22:27.761Z,100026.00
2023-10-06T17:24:05.503Z,100033.00
2023-10-06T17:25:38.919Z,100027.00
2023-10-06T17:27:12.878Z,100029.00
2023-10-06T17:28:47.169Z,100026.00
2023-10-06T17:30:21.066Z,100028.00
2023-10-06T17:31:58.310Z,100024.00
2023-10-06T17:33:31.389Z,100024.00
2023-10-06T17:35:06.242Z,100027.00
2023-10-06T17:36:42.079Z,100024.00
2023-10-06T17:38:17.299Z,100031.00
2023-10-06T17:39:50.103Z,100033.00
2023-10-06T17:41:24.644Z,100028.00
2023-10-06T17:42:58.115Z,100025.00
2023-10-06T17:44:30.966Z,100021.00
2023-10-06T17:46:05.624Z,100031.00
2023-10-06T17:47:39.741Z,100022.00
2023-10-06T17:49:12.890Z,100020.00
2023-10-06T17:50:48.526Z,100027.00
2023-10-06T17:52:23.194Z,100023.00
2023-10-06T17:53:55.562Z,100026.00
2023-10-06T17:55:33.899Z,100030.00
2023-10-06T17:57:06.962Z,100033.00
2023-10-06T17:58:40.869Z,100027.00
2023-10-06T18:00:17.793Z,100032.00
2023-10-06T18:01:51.798Z,100032.00
2023-10-06T18:03:29.164Z,100039.00
2023-10-06T18:05:05.756Z,100032.00
2023-10-06T18:06:39.371Z,100034.00
2023-10-06T18:08:12.073Z,100034.00
2023-10-06T18:09:45.727Z,100031.00
2023-10-06T18:11:17.938Z,100023.00
2023-10-06T18:12:51.616Z,100027.00
2023-10-06T18:14:24.785Z,100032.00
2023-10-06T18:15:58.594Z,100035.00
2023-10-06T18:17:32.964Z,100026.00
2023-10-06T18:19:08.319Z,100033.00